Página principal
METAR-TAF:

METAR-TAF

Aeroportos :

Terceira, Açores, Portugal

Base Aérea das Lajes

latitude: 38-46N, longitude: 027-06W, altura: 52 m

Observação actual do tempo

O boletim foi feito há 45 minutos, às 01:00 UTC
Temperatura 20°C
Humidade 94%
Pressão 1023 hPa
Visibilidade 10 km ou mais
Nuvens fragmentadasa uma altura de 2300 ft

METAR: LPLA 180100Z /////KT 9999 BKN023 20/19 Q1023

Hora: 01:45 (01:45 UTC)

Previsão

O boletim foi feito há 2 horas e 36 minutos, às 23:09 UTC
Previsão válida de 18 às 00 UTC a 18 às 24 UTC
Vento 17 kt de noroeste
Visibilidade 10 km ou mais
Nuvens dispersasa uma altura de 2000 ft
Tornando-se
de 18 às 10 UTC a 18 às 14 UTC
Vento 12 kt de oeste

TAF: LPLA 172309Z 1800/1824 31017KT 9999 SCT020 BECMG 1810/1814 27012KT

Observações e previsões do tempo de mais de 4000 aeroportos (mensagens METAR e TAF).

As estações disponíveis são os pontos amarelos e vermelhos sobre o mapa.

Mova o rato sobre o mapa para ver o nome da estação.

Depois clique no ponto para visualizar as observações e previsões meteorológicas.

Para alterar o mapa : clique nos botões verdes com uma cruz preta para aumentar o zoom; no botão verde com uma pitada de zoom; ou nas setas verdes para mapas adjacentes.


METAR-TAF: